createdAt,value
2023-03-22T00:00:07.780Z,71.34
2023-03-22T00:02:40.677Z,71.29
2023-03-22T00:05:13.125Z,71.88
2023-03-22T00:07:45.799Z,71.25
2023-03-22T00:10:19.982Z,71.00
2023-03-22T00:12:52.944Z,71.58
2023-03-22T00:15:25.417Z,71.84
2023-03-22T00:17:59.339Z,71.44
2023-03-22T00:20:34.222Z,71.48
2023-03-22T00:23:06.803Z,71.96
2023-03-22T00:25:41.021Z,72.07
2023-03-22T00:28:14.766Z,72.43
2023-03-22T00:30:53.448Z,72.49
2023-03-22T00:33:26.536Z,72.28
2023-03-22T00:36:01.218Z,72.47
2023-03-22T00:38:43.976Z,72.25
2023-03-22T00:41:20.540Z,72.08
2023-03-22T00:43:53.267Z,72.54
2023-03-22T00:46:26.245Z,71.69
2023-03-22T00:48:58.968Z,72.60
2023-03-22T00:51:31.830Z,72.88
2023-03-22T00:54:04.487Z,72.11
2023-03-22T00:56:38.517Z,72.25
2023-03-22T00:59:17.504Z,72.46
2023-03-22T01:01:50.283Z,72.36
2023-03-22T01:04:26.489Z,73.00
2023-03-22T01:07:01.555Z,72.73
2023-03-22T01:09:34.721Z,72.49
2023-03-22T01:12:08.718Z,72.10
2023-03-22T01:14:41.302Z,73.30
2023-03-22T01:17:13.979Z,73.43
2023-03-22T01:19:46.760Z,73.51
2023-03-22T01:22:19.218Z,72.32
2023-03-22T01:24:51.998Z,73.04
2023-03-22T01:27:26.688Z,72.01
2023-03-22T01:29:59.107Z,73.47
2023-03-22T01:32:31.522Z,73.04
2023-03-22T01:35:04.345Z,73.15
2023-03-22T01:37:38.141Z,73.04
2023-03-22T01:40:13.358Z,73.62
2023-03-22T01:42:47.840Z,73.48
2023-03-22T01:45:43.397Z,73.40
2023-03-22T01:48:22.145Z,73.49
2023-03-22T01:51:05.352Z,73.15
2023-03-22T01:53:47.734Z,73.81
2023-03-22T01:56:24.071Z,73.43
2023-03-22T01:58:58.269Z,72.90
2023-03-22T02:01:39.749Z,73.91
2023-03-22T02:04:16.817Z,73.62
2023-03-22T02:06:51.744Z,74.60
2023-03-22T02:09:25.299Z,73.25
2023-03-22T02:12:06.541Z,73.82
2023-03-22T02:15:00.634Z,73.69
2023-03-22T02:18:16.767Z,74.49
2023-03-22T02:21:24.552Z,74.39
2023-03-22T02:24:35.591Z,73.96
2023-03-22T02:27:23.091Z,73.96
2023-03-22T02:30:09.350Z,73.90
2023-03-22T02:33:10.891Z,74.45
2023-03-22T02:35:53.760Z,74.16
2023-03-22T02:39:07.097Z,74.03
2023-03-22T02:41:53.794Z,74.25
2023-03-22T02:44:37.819Z,74.78
2023-03-22T02:47:20.769Z,75.32
2023-03-22T02:49:58.523Z,74.40
2023-03-22T02:52:39.368Z,74.96
2023-03-22T02:55:19.332Z,74.54
2023-03-22T02:57:57.416Z,74.74
2023-03-22T03:00:32.697Z,74.60
2023-03-22T03:03:11.652Z,75.19
2023-03-22T03:05:47.809Z,75.04
2023-03-22T03:08:21.418Z,74.52
2023-03-22T03:10:56.894Z,74.69
2023-03-22T03:13:30.387Z,75.43
2023-03-22T03:16:08.090Z,74.68
2023-03-22T03:18:47.232Z,74.06
2023-03-22T03:21:30.366Z,75.02
2023-03-22T03:24:15.915Z,74.20
2023-03-22T03:26:59.607Z,74.41
2023-03-22T03:29:39.665Z,74.79
2023-03-22T03:32:17.518Z,74.39
2023-03-22T03:34:55.900Z,74.91
2023-03-22T03:37:35.463Z,74.55
2023-03-22T03:40:13.256Z,73.99
2023-03-22T03:42:52.031Z,73.85
2023-03-22T03:45:26.026Z,75.10
2023-03-22T03:48:03.123Z,74.67
2023-03-22T03:50:36.042Z,74.83
2023-03-22T03:53:08.611Z,74.41
2023-03-22T03:55:41.636Z,74.97
2023-03-22T03:58:18.668Z,74.90
2023-03-22T04:00:52.948Z,74.88
2023-03-22T04:03:38.180Z,74.92
2023-03-22T04:06:17.418Z,75.21
2023-03-22T04:08:58.204Z,75.54
2023-03-22T04:11:36.704Z,75.43
2023-03-22T04:14:11.527Z,74.59
2023-03-22T04:16:44.650Z,74.41
2023-03-22T04:19:19.671Z,74.18
2023-03-22T04:21:53.465Z,74.80
2023-03-22T04:24:26.932Z,74.43
2023-03-22T04:26:59.692Z,75.15
2023-03-22T04:29:48.753Z,74.16
2023-03-22T04:32:38.336Z,75.16
2023-03-22T04:35:11.599Z,75.10
2023-03-22T04:37:45.841Z,74.98
2023-03-22T04:40:22.194Z,75.31
2023-03-22T04:43:13.797Z,75.85
2023-03-22T04:46:02.030Z,75.24
2023-03-22T04:48:43.178Z,75.18
2023-03-22T04:51:17.082Z,75.63
2023-03-22T04:54:03.818Z,75.80
2023-03-22T04:56:36.951Z,75.97
2023-03-22T04:59:10.986Z,74.68
2023-03-22T05:01:45.075Z,76.25
2023-03-22T05:04:22.444Z,75.64
2023-03-22T05:07:00.750Z,75.50
2023-03-22T05:09:46.841Z,74.58
2023-03-22T05:12:20.888Z,74.84
2023-03-22T05:15:04.509Z,75.26
2023-03-22T05:17:42.092Z,75.50
2023-03-22T05:20:15.416Z,75.65
2023-03-22T05:22:57.493Z,74.91
2023-03-22T05:25:33.825Z,74.99
2023-03-22T05:28:07.107Z,74.54
2023-03-22T05:31:06.060Z,74.17
2023-03-22T05:33:54.980Z,74.26
2023-03-22T05:36:30.624Z,73.64
2023-03-22T05:39:16.540Z,74.31
2023-03-22T05:41:50.287Z,73.71
2023-03-22T05:44:23.024Z,73.76
2023-03-22T05:47:14.872Z,72.93
2023-03-22T05:50:12.754Z,72.79
2023-03-22T05:52:45.540Z,73.12
2023-03-22T05:55:33.610Z,73.18
2023-03-22T05:58:11.000Z,72.79
2023-03-22T06:00:46.742Z,71.85
2023-03-22T06:03:31.665Z,71.71
2023-03-22T06:06:14.012Z,72.01
2023-03-22T06:09:16.565Z,72.20
2023-03-22T06:11:52.235Z,71.49
2023-03-22T06:14:25.293Z,71.38
2023-03-22T06:17:24.491Z,70.79
2023-03-22T06:19:57.660Z,70.73
2023-03-22T06:22:33.440Z,70.49
2023-03-22T06:25:07.890Z,70.19
2023-03-22T06:27:45.655Z,69.55
2023-03-22T06:30:19.280Z,70.26
2023-03-22T06:33:12.023Z,69.65
2023-03-22T06:35:48.395Z,69.33
2023-03-22T06:38:31.973Z,69.91
2023-03-22T06:41:05.174Z,69.09
2023-03-22T06:43:38.299Z,69.16
2023-03-22T06:46:20.621Z,68.74
2023-03-22T06:49:03.020Z,68.25
2023-03-22T06:51:35.884Z,68.45
2023-03-22T06:54:12.974Z,67.79
2023-03-22T06:56:45.642Z,67.87
2023-03-22T06:59:18.181Z,67.40
2023-03-22T07:01:50.947Z,67.07
2023-03-22T07:04:25.109Z,66.25
2023-03-22T07:06:57.875Z,65.48
2023-03-22T07:09:34.245Z,64.98
2023-03-22T07:12:07.785Z,63.98
2023-03-22T07:14:41.161Z,63.53
2023-03-22T07:17:43.998Z,63.26
2023-03-22T07:20:16.606Z,62.52
2023-03-22T07:22:50.255Z,61.62
2023-03-22T07:25:25.392Z,61.88
2023-03-22T07:28:07.360Z,61.96
2023-03-22T07:30:40.829Z,61.34
2023-03-22T07:33:14.502Z,60.78
2023-03-22T07:35:48.149Z,60.04
2023-03-22T07:38:21.095Z,60.00
2023-03-22T07:40:56.203Z,59.70
2023-03-22T07:43:44.085Z,59.40
2023-03-22T07:46:27.172Z,59.29
2023-03-22T07:49:32.684Z,59.51
2023-03-22T07:52:14.855Z,58.99
2023-03-22T07:54:47.813Z,58.80
2023-03-22T07:57:22.043Z,58.85
2023-03-22T08:00:00.879Z,58.39
2023-03-22T08:02:48.394Z,57.54
2023-03-22T08:05:42.425Z,58.17
2023-03-22T08:08:18.690Z,58.38
2023-03-22T08:10:52.912Z,57.56
2023-03-22T08:13:27.216Z,57.50
2023-03-22T08:16:01.158Z,57.10
2023-03-22T08:18:35.501Z,57.01
2023-03-22T08:21:08.953Z,56.67
2023-03-22T08:23:42.771Z,56.64
2023-03-22T08:26:34.212Z,56.52
2023-03-22T08:29:19.096Z,56.85
2023-03-22T08:31:54.400Z,56.76
2023-03-22T08:34:27.130Z,56.96
2023-03-22T08:36:59.753Z,57.56
2023-03-22T08:39:32.874Z,57.66
2023-03-22T08:42:27.023Z,57.90
2023-03-22T08:45:01.159Z,58.04
2023-03-22T08:47:36.142Z,58.33
2023-03-22T08:50:10.826Z,58.13
2023-03-22T08:52:55.170Z,58.08
2023-03-22T08:55:35.583Z,58.49
2023-03-22T08:58:11.464Z,57.82
2023-03-22T09:01:14.152Z,58.43
2023-03-22T09:03:53.349Z,58.38
2023-03-22T09:06:26.736Z,58.26
2023-03-22T09:08:59.312Z,59.04
2023-03-22T09:11:32.755Z,59.16
2023-03-22T09:14:05.616Z,59.12
2023-03-22T09:16:39.804Z,58.06
2023-03-22T09:19:12.290Z,58.32
2023-03-22T09:21:46.263Z,58.45
2023-03-22T09:24:36.234Z,58.36
2023-03-22T09:27:09.669Z,56.81
2023-03-22T09:29:42.630Z,56.61
2023-03-22T09:32:22.447Z,55.78
2023-03-22T09:35:02.806Z,55.44
2023-03-22T09:37:45.952Z,55.69
2023-03-22T09:40:19.571Z,54.97
2023-03-22T09:42:58.002Z,55.07
2023-03-22T09:45:38.510Z,55.31
2023-03-22T09:48:18.839Z,54.65
2023-03-22T09:50:53.908Z,54.86
2023-03-22T09:53:32.915Z,54.50
2023-03-22T09:56:12.997Z,54.33
2023-03-22T09:58:51.272Z,54.13
2023-03-22T10:01:37.719Z,54.05
2023-03-22T10:04:29.934Z,53.94
2023-03-22T10:07:10.774Z,54.27
2023-03-22T10:09:56.208Z,53.98
2023-03-22T10:12:30.630Z,54.09
2023-03-22T10:15:07.169Z,53.57
2023-03-22T10:17:42.801Z,53.55
2023-03-22T10:20:29.274Z,53.48
2023-03-22T10:23:04.200Z,53.57
2023-03-22T10:25:40.163Z,53.14
2023-03-22T10:28:20.948Z,53.05
2023-03-22T10:30:56.697Z,52.78
2023-03-22T10:33:38.026Z,52.86
2023-03-22T10:36:15.134Z,52.64
2023-03-22T10:38:50.612Z,52.88
2023-03-22T10:41:25.840Z,52.59
2023-03-22T10:44:01.755Z,53.04
2023-03-22T10:46:38.399Z,52.38
2023-03-22T10:49:26.261Z,53.39
2023-03-22T10:52:03.950Z,53.34
2023-03-22T10:54:37.150Z,53.16
2023-03-22T10:57:09.607Z,53.22
2023-03-22T10:59:44.051Z,52.99
2023-03-22T11:02:22.896Z,53.11
2023-03-22T11:04:58.001Z,52.72
2023-03-22T11:07:34.449Z,52.95
2023-03-22T11:10:23.230Z,53.33
2023-03-22T11:13:13.781Z,53.01
2023-03-22T11:16:02.384Z,52.91
2023-03-22T11:18:35.374Z,52.60
2023-03-22T11:21:11.478Z,52.67
2023-03-22T11:23:55.646Z,52.86
2023-03-22T11:26:35.896Z,53.00
2023-03-22T11:29:17.246Z,53.28
2023-03-22T11:31:55.644Z,52.82
2023-03-22T11:34:31.027Z,52.86
2023-03-22T11:37:08.587Z,52.75
2023-03-22T11:39:46.633Z,52.95
2023-03-22T11:42:21.599Z,53.23
2023-03-22T11:44:57.024Z,53.11
2023-03-22T11:47:37.426Z,53.21
2023-03-22T11:50:26.866Z,53.08
2023-03-22T11:53:02.951Z,53.46
2023-03-22T11:55:37.333Z,53.51
2023-03-22T11:58:26.570Z,53.52
2023-03-22T12:01:01.086Z,53.67
2023-03-22T12:03:39.061Z,53.76
2023-03-22T12:06:18.732Z,54.19
2023-03-22T12:08:55.884Z,54.15
2023-03-22T12:11:34.394Z,54.17
2023-03-22T12:14:15.793Z,54.19
2023-03-22T12:16:51.422Z,54.61
2023-03-22T12:19:38.773Z,54.39
2023-03-22T12:22:15.590Z,54.75
2023-03-22T12:24:48.306Z,54.54
2023-03-22T12:27:27.351Z,54.70
2023-03-22T12:30:08.093Z,54.92
2023-03-22T12:32:44.616Z,54.86
2023-03-22T12:35:22.730Z,54.85
2023-03-22T12:37:59.521Z,55.38
2023-03-22T12:40:36.957Z,55.35
2023-03-22T12:43:16.238Z,55.29
2023-03-22T12:45:53.618Z,55.56
2023-03-22T12:48:35.364Z,55.96
2023-03-22T12:51:11.429Z,55.82
2023-03-22T12:53:47.468Z,55.92
2023-03-22T12:56:23.898Z,56.08
2023-03-22T12:59:03.615Z,56.40
2023-03-22T13:01:40.150Z,56.53
2023-03-22T13:04:32.216Z,56.38
2023-03-22T13:07:16.383Z,56.41
2023-03-22T13:09:50.378Z,56.60
2023-03-22T13:12:34.518Z,56.20
2023-03-22T13:15:38.729Z,56.58
2023-03-22T13:18:39.976Z,56.59
2023-03-22T13:21:15.284Z,56.77
2023-03-22T13:24:01.067Z,56.81
2023-03-22T13:26:44.043Z,56.52
2023-03-22T13:29:18.987Z,56.43
2023-03-22T13:31:58.884Z,57.29
2023-03-22T13:34:37.743Z,56.81
2023-03-22T13:37:16.763Z,57.25
2023-03-22T13:39:52.043Z,57.56
2023-03-22T13:42:35.348Z,57.34
2023-03-22T13:45:27.607Z,57.52
2023-03-22T13:48:12.019Z,57.43
2023-03-22T13:50:46.317Z,57.37
2023-03-22T13:53:28.879Z,57.52
2023-03-22T13:56:05.695Z,57.78
2023-03-22T13:58:50.664Z,58.21
2023-03-22T14:01:29.890Z,58.24
2023-03-22T14:04:10.307Z,58.30
2023-03-22T14:06:51.871Z,57.99
2023-03-22T14:09:31.442Z,58.14
2023-03-22T14:12:12.031Z,57.98
2023-03-22T14:14:48.992Z,57.97
2023-03-22T14:17:32.395Z,57.76
2023-03-22T14:20:10.743Z,58.41
